Time;durP1;ratioP1;P1;durP2;ratioP2;P2;SDS_P1;SDS_P2;PMS_P1;PMS_P2;Temp;Humidity;BMP_temperature;BMP_pressure;BME280_temperature;BME280_humidity;BME280_pressure;Samples;Min_cycle;Max_cycle;Signal;HPM_P1;HPM_P2
2022/07/07 00:01:06;;;;;;;11.73;4.13;;;;;;;19.00;nan;100613.16;5025259;28;20545;-71
2022/07/07 00:03:32;;;;;;;8.52;3.92;;;;;;;18.84;nan;100591.91;5025318;28;20037;-71
2022/07/07 00:05:57;;;;;;;13.35;3.90;;;;;;;18.89;nan;100618.56;5020809;28;20110;-71
2022/07/07 00:08:22;;;;;;;10.73;4.80;;;;;;;18.87;nan;100633.25;5020443;28;20099;-71
2022/07/07 00:10:48;;;;;;;10.45;4.50;;;;;;;18.83;nan;100616.19;5021832;28;20056;-71
2022/07/07 00:13:13;;;;;;;14.25;4.90;;;;;;;18.76;nan;100607.66;5022475;28;20053;-71
2022/07/07 00:15:39;;;;;;;10.00;4.80;;;;;;;18.84;nan;100626.59;5025894;28;20030;-71
2022/07/07 00:18:05;;;;;;;11.43;4.60;;;;;;;18.79;nan;100629.25;5027106;28;20033;-71
2022/07/07 00:20:30;;;;;;;9.77;4.18;;;;;;;18.71;nan;100589.78;5026039;28;20475;-71
2022/07/07 00:22:55;;;;;;;8.70;4.50;;;;;;;18.67;nan;100604.75;5024484;28;20471;-72
2022/07/07 00:25:21;;;;;;;10.07;5.00;;;;;;;18.63;nan;100612.50;5023888;28;20041;-72
2022/07/07 00:27:46;;;;;;;10.90;4.88;;;;;;;18.61;nan;100611.97;5025049;28;20093;-71
2022/07/07 00:30:12;;;;;;;7.95;4.07;;;;;;;18.55;nan;100617.59;5022970;28;20044;-72
2022/07/07 00:32:38;;;;;;;12.80;4.70;;;;;;;18.44;nan;100609.66;5020474;28;20038;-71
2022/07/07 00:35:03;;;;;;;11.02;4.75;;;;;;;18.46;nan;100612.03;5022995;28;20048;-71
2022/07/07 00:37:29;;;;;;;6.88;4.45;;;;;;;18.45;nan;100623.78;5027393;28;20132;-71
2022/07/07 00:39:54;;;;;;;11.77;4.70;;;;;;;18.39;nan;100670.16;5027431;28;20112;-72
2022/07/07 00:42:19;;;;;;;10.68;4.13;;;;;;;18.34;nan;100608.88;5026330;28;20052;-71
2022/07/07 00:44:46;;;;;;;7.72;4.68;;;;;;;18.35;nan;100629.94;5020116;28;20417;-70
2022/07/07 00:47:12;;;;;;;9.05;4.78;;;;;;;18.33;nan;100668.59;5027168;28;20030;-72
2022/07/07 00:49:39;;;;;;;7.47;3.97;;;;;;;18.30;nan;100602.50;5021897;28;20403;-72
2022/07/07 00:52:07;;;;;;;9.15;4.70;;;;;;;18.32;nan;100624.38;5023937;28;20121;-72
2022/07/07 00:54:33;;;;;;;10.00;4.47;;;;;;;18.30;nan;100639.81;5025322;28;20124;-71
2022/07/07 00:56:58;;;;;;;14.73;4.53;;;;;;;18.26;nan;100607.56;5012780;28;20681;-70
2022/07/07 00:59:24;;;;;;;11.20;4.97;;;;;;;;;;5029435;28;20481;-71
2022/07/07 01:01:49;;;;;;;13.88;4.88;;;;;;;18.21;nan;100612.91;5023130;28;20128;-71
2022/07/07 01:04:17;;;;;;;11.07;4.32;;;;;;;18.17;nan;100615.34;5021016;28;20041;-71
2022/07/07 01:06:42;;;;;;;7.40;4.32;;;;;;;18.22;nan;100601.16;5017427;28;20049;-71
2022/07/07 01:09:08;;;;;;;10.75;4.93;;;;;;;;;;5019921;28;20033;-71
2022/07/07 01:11:47;;;;;;;7.47;4.35;;;;;;;18.20;nan;100606.78;5027824;28;20464;-71
2022/07/07 01:14:13;;;;;;;12.10;4.63;;;;;;;18.21;nan;100618.25;5025030;28;20033;-71
2022/07/07 01:16:38;;;;;;;9.88;4.28;;;;;;;18.20;nan;100627.31;5025073;28;20046;-71
2022/07/07 01:19:04;;;;;;;13.43;5.25;;;;;;;18.17;nan;100578.03;5028484;28;20087;-71
2022/07/07 01:21:33;;;;;;;9.55;4.80;;;;;;;18.16;nan;100621.72;5029528;28;20026;-71
2022/07/07 01:23:59;;;;;;;12.73;4.97;;;;;;;18.14;nan;100669.16;5028329;28;20035;-71
2022/07/07 01:26:26;;;;;;;15.20;6.07;;;;;;;18.14;nan;100689.69;5029637;28;20379;-64
2022/07/07 01:28:52;;;;;;;13.88;5.68;;;;;;;;;;5025405;28;20124;-64
2022/07/07 01:31:18;;;;;;;11.43;5.43;;;;;;;18.07;nan;100645.44;5024856;28;20128;-66
2022/07/07 01:33:43;;;;;;;10.75;5.25;;;;;;;18.05;nan;100596.97;5027482;28;20033;-64
2022/07/07 01:36:12;;;;;;;9.25;4.40;;;;;;;18.04;nan;100578.56;5028198;28;20168;-65
2022/07/07 01:38:38;;;;;;;12.18;5.55;;;;;;;18.05;nan;100596.97;5029809;28;20037;-65
2022/07/07 01:41:03;;;;;;;11.80;5.40;;;;;;;18.06;nan;100611.88;5027685;28;20119;-65
2022/07/07 01:43:28;;;;;;;13.50;5.70;;;;;;;18.04;nan;100602.56;5031137;28;20037;-64
2022/07/07 01:45:54;;;;;;;8.90;5.00;;;;;;;17.99;nan;100648.66;5029523;28;20143;-72
2022/07/07 01:48:19;;;;;;;9.82;4.80;;;;;;;18.00;nan;100604.16;5026844;28;20042;-70
2022/07/07 01:50:45;;;;;;;8.05;4.57;;;;;;;17.99;nan;100610.56;5028071;28;20044;-71
2022/07/07 01:53:10;;;;;;;12.48;4.40;;;;;;;;;;5023604;28;20061;-72
2022/07/07 01:55:35;;;;;;;12.77;4.33;;;;;;;17.92;nan;100613.50;5025452;28;20045;-72
2022/07/07 01:58:01;;;;;;;8.32;4.28;;;;;;;17.86;nan;100609.22;5033082;28;20120;-71
2022/07/07 02:00:26;;;;;;;9.23;4.60;;;;;;;17.80;nan;100604.97;5027133;28;20041;-72
2022/07/07 02:02:52;;;;;;;8.73;4.30;;;;;;;17.71;nan;100587.91;5021277;28;20119;-72
2022/07/07 02:05:17;;;;;;;10.57;4.50;;;;;;;17.60;nan;100601.25;5023313;28;20040;-71
2022/07/07 02:07:45;;;;;;;9.48;5.10;;;;;;;;;;5025575;28;20037;-72
2022/07/07 02:10:10;;;;;;;9.63;5.72;;;;;;;;;;5022584;28;20463;-71
2022/07/07 02:12:36;;;;;;;10.32;5.40;;;;;;;17.55;nan;100611.06;5025478;28;20038;-72
2022/07/07 02:15:01;;;;;;;7.82;5.22;;;;;;;17.56;nan;100613.47;5026241;28;20644;-72
2022/07/07 02:17:27;;;;;;;12.20;5.20;;;;;;;;;;5025847;28;20125;-72
2022/07/07 02:19:52;;;;;;;9.53;5.40;;;;;;;;;;5022719;28;20096;-72
2022/07/07 02:22:18;;;;;;;9.23;5.43;;;;;;;17.57;nan;100609.75;5029293;28;20275;-72
2022/07/07 02:24:46;;;;;;;12.48;5.35;;;;;;;17.56;nan;100608.16;5024770;28;20311;-72
2022/07/07 02:27:13;;;;;;;9.52;5.07;;;;;;;17.52;nan;100595.63;5021303;28;20042;-72
2022/07/07 02:29:38;;;;;;;8.30;5.00;;;;;;;17.53;nan;100603.38;5026245;28;20045;-72
2022/07/07 02:32:04;;;;;;;9.30;5.45;;;;;;;17.49;nan;100561.56;5012067;28;20407;-72
2022/07/07 02:34:29;;;;;;;11.40;5.53;;;;;;;17.53;nan;100619.34;5026927;28;20033;-72
2022/07/07 02:36:55;;;;;;;13.95;6.28;;;;;;;17.53;nan;100614.03;5028661;28;20046;-72
2022/07/07 02:39:21;;;;;;;10.15;5.93;;;;;;;17.52;nan;100623.06;5030052;28;20534;-71
2022/07/07 02:41:46;;;;;;;10.45;5.38;;;;;;;17.42;nan;100625.72;5027671;28;20044;-72
2022/07/07 02:44:11;;;;;;;10.88;5.45;;;;;;;;;;5029690;28;20479;-72
2022/07/07 02:46:37;;;;;;;10.17;5.50;;;;;;;;;;5025945;28;20076;-72
2022/07/07 02:49:02;;;;;;;7.85;4.60;;;;;;;17.35;nan;100614.53;5023778;28;20282;-72
2022/07/07 02:51:28;;;;;;;6.18;4.40;;;;;;;17.30;nan;100566.63;5024944;28;20037;-71
2022/07/07 02:53:53;;;;;;;12.93;4.47;;;;;;;;;;5024583;28;20044;-66
2022/07/07 02:56:19;;;;;;;8.68;4.10;;;;;;;;;;5026058;28;20045;-65
2022/07/07 02:58:44;;;;;;;7.57;4.20;;;;;;;;;;5029753;28;20033;-65
2022/07/07 03:01:09;;;;;;;6.97;4.00;;;;;;;;;;5026628;28;20095;-66
2022/07/07 03:03:36;;;;;;;7.63;3.90;;;;;;;;;;5020961;28;20290;-72
2022/07/07 03:06:02;;;;;;;6.63;3.83;;;;;;;;;;5025411;28;20597;-72
2022/07/07 03:08:28;;;;;;;7.90;4.10;;;;;;;;;;5027194;28;20030;-72
2022/07/07 03:10:53;;;;;;;6.50;4.47;;;;;;;;;;5028326;28;20044;-72
2022/07/07 03:13:19;;;;;;;5.63;4.10;;;;;;;;;;5022874;28;20267;-72
2022/07/07 03:15:44;;;;;;;5.82;4.13;;;;;;;17.12;nan;100611.31;5026353;28;20329;-72
2022/07/07 03:18:09;;;;;;;9.15;4.00;;;;;;;;;;5021817;28;20037;-71
2022/07/07 03:20:34;;;;;;;11.13;4.97;;;;;;;;;;5027603;28;20045;-71
2022/07/07 03:23:00;;;;;;;10.03;4.67;;;;;;;17.06;nan;100652.25;5025403;28;20033;-72
2022/07/07 03:25:25;;;;;;;14.98;4.72;;;;;;;;;;5026878;28;20421;-71
2022/07/07 03:27:50;;;;;;;16.75;6.10;;;;;;;;;;5025312;28;20036;-71
2022/07/07 03:30:16;;;;;;;19.98;5.22;;;;;;;;;;5024750;28;20044;-72
2022/07/07 03:32:41;;;;;;;13.30;5.43;;;;;;;;;;5025497;28;20104;-72
2022/07/07 03:35:10;;;;;;;9.93;5.28;;;;;;;16.93;nan;100674.03;5024556;28;20514;-72
2022/07/07 03:37:36;;;;;;;11.65;5.05;;;;;;;;;;5019041;28;20041;-71
2022/07/07 03:40:02;;;;;;;10.60;5.63;;;;;;;16.92;nan;100627.22;5024682;28;20026;-72
2022/07/07 03:42:27;;;;;;;10.82;5.80;;;;;;;;;;5023976;28;20030;-72
2022/07/07 03:44:52;;;;;;;13.07;5.63;;;;;;;;;;5026067;28;20404;-72
2022/07/07 03:47:17;;;;;;;8.10;5.23;;;;;;;;;;5025789;28;20303;-72
2022/07/07 03:49:43;;;;;;;9.37;5.77;;;;;;;16.72;nan;100628.72;5021279;28;20291;-72
2022/07/07 03:52:08;;;;;;;8.70;6.07;;;;;;;;;;5027197;28;20102;-72
2022/07/07 03:54:33;;;;;;;10.18;5.50;;;;;;;;;;5024337;28;20045;-71
2022/07/07 03:56:59;;;;;;;10.43;5.30;;;;;;;;;;5025469;28;20041;-72
2022/07/07 03:59:24;;;;;;;9.83;5.70;;;;;;;;;;5027872;28;20310;-72
2022/07/07 04:01:49;;;;;;;7.73;5.70;;;;;;;;;;5028301;28;20419;-72
2022/07/07 04:04:15;;;;;;;9.00;5.67;;;;;;;;;;5026474;28;20282;-71
2022/07/07 04:06:40;;;;;;;10.15;5.90;;;;;;;;;;5023754;28;20045;-72
2022/07/07 04:09:06;;;;;;;13.57;5.57;;;;;;;;;;5028135;28;20084;-73
2022/07/07 04:11:31;;;;;;;5.43;4.83;;;;;;;;;;5019718;28;20048;-72
2022/07/07 04:13:56;;;;;;;15.23;5.63;;;;;;;17.27;nan;100599.09;5025852;28;20279;-65
2022/07/07 04:16:22;;;;;;;15.52;5.75;;;;;;;;;;5024152;28;20037;-66
2022/07/07 04:18:47;;;;;;;16.17;5.57;;;;;;;;;;5026058;28;20212;-64
2022/07/07 04:21:12;;;;;;;14.57;5.47;;;;;;;;;;5026700;28;20052;-65
2022/07/07 04:23:37;;;;;;;23.53;5.60;;;;;;;;;;5020718;28;20710;-63
2022/07/07 04:26:04;;;;;;;29.23;6.30;;;;;;;;;;5022811;28;20274;-65
2022/07/07 04:28:29;;;;;;;11.55;6.72;;;;;;;;;;5022700;28;20305;-65
2022/07/07 04:30:55;;;;;;;10.15;7.28;;;;;;;;;;5020936;28;20038;-64
2022/07/07 04:33:20;;;;;;;8.65;7.10;;;;;;;;;;5022886;28;20105;-65
2022/07/07 04:35:46;;;;;;;11.15;6.25;;;;;;;17.96;nan;100619.91;5021830;28;20048;-66
2022/07/07 04:38:11;;;;;;;13.77;6.35;;;;;;;18.04;nan;100624.66;5025966;28;20040;-65
2022/07/07 04:40:36;;;;;;;16.75;6.80;;;;;;;18.11;nan;100636.94;5023034;28;20042;-66
2022/07/07 04:43:02;;;;;;;15.80;7.00;;;;;;;18.14;nan;100623.84;5030999;28;20368;-65
2022/07/07 04:45:28;;;;;;;16.05;7.70;;;;;;;18.20;nan;100630.78;5021829;28;20025;-66
2022/07/07 04:47:53;;;;;;;13.43;6.57;;;;;;;;;;5025110;28;20083;-66
2022/07/07 04:50:18;;;;;;;13.67;6.63;;;;;;;;;;5023717;28;20037;-66
2022/07/07 04:52:44;;;;;;;12.77;6.30;;;;;;;18.35;nan;100627.28;5019433;28;20283;-66
2022/07/07 04:55:09;;;;;;;13.73;6.63;;;;;;;18.40;nan;100643.25;5019368;28;20310;-73
2022/07/07 04:57:35;;;;;;;13.52;6.90;;;;;;;18.43;nan;100596.56;5027234;28;20049;-73
2022/07/07 05:00:00;;;;;;;10.63;6.32;;;;;;;18.48;nan;100641.88;5003039;28;20029;-72
2022/07/07 05:02:26;;;;;;;13.13;6.90;;;;;;;18.62;nan;100637.56;5027012;28;20044;-71
2022/07/07 05:04:51;;;;;;;11.13;6.70;;;;;;;18.63;nan;100619.72;5025956;28;20166;-72
2022/07/07 05:07:17;;;;;;;13.40;6.25;;;;;;;;;;5021170;28;20391;-66
2022/07/07 05:09:42;;;;;;;8.23;6.57;;;;;;;18.88;nan;100614.28;5022116;28;20498;-65
2022/07/07 05:12:08;;;;;;;14.35;7.00;;;;;;;18.94;nan;100622.25;5024575;28;20053;-65
2022/07/07 05:14:34;;;;;;;13.50;6.13;;;;;;;19.05;nan;100605.13;5021222;28;20049;-64
2022/07/07 05:16:59;;;;;;;11.23;5.80;;;;;;;19.17;nan;100760.41;5023209;28;20033;-66
2022/07/07 05:19:25;;;;;;;11.15;5.47;;;;;;;19.23;nan;100619.69;5024217;28;20052;-66
2022/07/07 05:21:51;;;;;;;9.48;5.70;;;;;;;19.25;nan;100615.69;5026382;28;20068;-65
2022/07/07 05:24:17;;;;;;;11.45;5.85;;;;;;;19.41;nan;100607.56;5027545;28;20084;-71
2022/07/07 05:26:43;;;;;;;10.35;5.13;;;;;;;19.49;nan;100631.81;5023069;28;20033;-70
2022/07/07 05:29:08;;;;;;;10.15;6.00;;;;;;;19.62;nan;100625.00;5024036;28;20476;-72
2022/07/07 05:31:33;;;;;;;13.63;5.70;;;;;;;19.68;nan;100620.44;5023685;28;20029;-70
2022/07/07 05:33:59;;;;;;;10.45;4.57;;;;;;;19.75;nan;100640.44;5021129;28;20407;-70
2022/07/07 05:36:24;;;;;;;17.75;5.65;;;;;;;19.92;nan;100633.84;5025683;28;20372;-66
2022/07/07 05:38:50;;;;;;;12.55;4.38;;;;;;;20.05;nan;100643.91;5025732;28;20503;-65
2022/07/07 05:41:16;;;;;;;8.75;4.00;;;;;;;20.16;nan;100632.03;5024783;28;20041;-65
2022/07/07 05:43:41;;;;;;;12.35;4.18;;;;;;;;;;5026369;28;20041;-66
2022/07/07 05:46:07;;;;;;;17.50;3.65;;;;;;;20.29;nan;100637.78;5022098;28;20034;-65
2022/07/07 05:48:32;;;;;;;7.50;3.58;;;;;;;20.35;nan;100642.81;5023722;28;20180;-62
2022/07/07 05:50:57;;;;;;;7.78;3.47;;;;;;;20.38;nan;100626.19;5021077;28;20116;-65
2022/07/07 05:53:23;;;;;;;9.30;3.20;;;;;;;20.47;nan;100645.09;5017919;28;20403;-65
2022/07/07 05:55:49;;;;;;;7.90;3.05;;;;;;;20.54;nan;100647.41;5021065;28;20080;-67
2022/07/07 05:58:15;;;;;;;9.95;2.92;;;;;;;20.65;nan;100603.41;5020878;28;20509;-65
2022/07/07 06:00:40;;;;;;;10.52;3.60;;;;;;;20.70;nan;100648.84;5026038;28;20475;-74
2022/07/07 06:03:06;;;;;;;6.28;2.88;;;;;;;20.75;nan;100688.91;5023661;28;20033;-75
2022/07/07 06:05:31;;;;;;;6.18;2.63;;;;;;;20.81;nan;100641.50;5023351;28;20068;-74
2022/07/07 06:07:57;;;;;;;7.85;3.00;;;;;;;;;;5023596;28;20037;-75
2022/07/07 06:10:22;;;;;;;10.40;2.90;;;;;;;20.93;nan;100644.56;5023734;28;20034;-75
2022/07/07 06:12:48;;;;;;;4.43;3.03;;;;;;;20.96;nan;100635.16;5020995;28;20278;-75
2022/07/07 06:15:14;;;;;;;7.90;2.90;;;;;;;21.05;nan;100644.13;5021715;28;20380;-75
2022/07/07 06:17:40;;;;;;;9.02;3.40;;;;;;;21.08;nan;100637.41;5021097;28;20040;-75
2022/07/07 06:20:06;;;;;;;10.77;3.10;;;;;;;21.12;nan;100582.97;5026456;28;20033;-76
2022/07/07 06:22:32;;;;;;;11.45;3.03;;;;;;;21.13;nan;100622.03;5024220;28;20029;-74
2022/07/07 06:24:58;;;;;;;11.25;3.55;;;;;;;21.24;nan;100638.78;5022676;28;20064;-75
2022/07/07 06:27:23;;;;;;;11.95;3.25;;;;;;;21.27;nan;100632.81;5024794;28;20036;-75
2022/07/07 06:29:49;;;;;;;12.02;3.20;;;;;;;21.30;nan;100693.84;5025156;28;20025;-74
2022/07/07 06:32:15;;;;;;;14.07;2.67;;;;;;;21.27;nan;100630.16;5027886;28;20041;-75
2022/07/07 06:34:41;;;;;;;10.48;3.17;;;;;;;21.50;nan;100630.34;5024880;28;20637;-75
2022/07/07 06:37:06;;;;;;;10.80;2.70;;;;;;;;;;5023831;28;20084;-64
2022/07/07 06:39:32;;;;;;;10.05;2.80;;;;;;;21.59;nan;100642.00;5029204;28;20391;-64
2022/07/07 06:41:57;;;;;;;10.38;2.65;;;;;;;21.63;nan;100643.81;5024994;28;20534;-66
2022/07/07 06:44:22;;;;;;;5.72;2.55;;;;;;;21.70;nan;100637.28;5027100;28;20061;-65
2022/07/07 06:46:48;;;;;;;6.47;2.60;;;;;;;21.83;nan;100641.88;5023339;28;20108;-66
2022/07/07 06:49:13;;;;;;;7.45;2.85;;;;;;;;;;5025774;28;20032;-66
2022/07/07 06:51:39;;;;;;;18.90;2.93;;;;;;;21.96;nan;100646.47;5029016;28;20042;-66
2022/07/07 06:54:04;;;;;;;6.88;2.50;;;;;;;22.01;nan;100648.28;5025999;28;20117;-66
2022/07/07 06:56:30;;;;;;;7.30;2.90;;;;;;;22.10;nan;100635.78;5023216;28;20030;-66
2022/07/07 06:58:55;;;;;;;6.82;2.30;;;;;;;;;;5023507;28;20428;-65
2022/07/07 07:01:20;;;;;;;7.43;2.53;;;;;;;22.14;nan;100577.75;5025111;28;20029;-66
2022/07/07 07:03:46;;;;;;;6.28;2.50;;;;;;;22.27;nan;100654.81;5022638;28;20037;-65
2022/07/07 07:06:11;;;;;;;7.65;2.22;;;;;;;22.40;nan;100644.38;5027450;28;20030;-65
2022/07/07 07:08:37;;;;;;;3.17;2.42;;;;;;;22.38;nan;100571.44;5024087;28;20751;-65
2022/07/07 07:11:03;;;;;;;6.38;2.35;;;;;;;22.50;nan;100593.97;5023254;28;20042;-65
2022/07/07 07:13:29;;;;;;;12.52;2.90;;;;;;;22.62;nan;100657.09;5025059;28;20052;-66
2022/07/07 07:15:55;;;;;;;4.28;2.50;;;;;;;22.62;nan;100694.66;5023813;28;20034;-65
2022/07/07 07:18:20;;;;;;;7.20;2.75;;;;;;;22.72;nan;100672.97;5006625;28;20041;-65
2022/07/07 07:20:45;;;;;;;6.28;2.70;;;;;;;22.76;nan;100641.75;5028081;28;20036;-65
2022/07/07 07:23:11;;;;;;;6.82;2.67;;;;;;;22.82;nan;100655.84;5021211;28;20095;-65
2022/07/07 07:25:36;;;;;;;7.78;2.60;;;;;;;22.80;nan;100637.38;5029121;28;20391;-65
2022/07/07 07:28:02;;;;;;;4.55;2.90;;;;;;;22.86;nan;100600.47;5023311;28;20714;-65
2022/07/07 07:30:27;;;;;;;5.60;2.60;;;;;;;23.01;nan;100618.97;5022721;28;20041;-65
2022/07/07 07:32:53;;;;;;;3.90;2.35;;;;;;;23.04;nan;100634.47;5026360;28;20394;-66
2022/07/07 07:35:18;;;;;;;6.93;2.60;;;;;;;23.18;nan;100649.75;5027385;28;20057;-63
2022/07/07 07:37:44;;;;;;;8.40;2.90;;;;;;;23.29;nan;100651.91;5024943;28;20365;-65
2022/07/07 07:40:11;;;;;;;8.32;2.72;;;;;;;23.39;nan;100703.81;5022727;28;20034;-66
2022/07/07 07:42:38;;;;;;;8.15;2.67;;;;;;;23.50;nan;100659.50;5024757;28;20034;-66
2022/07/07 07:45:11;;;;;;;6.50;3.03;;;;;;;23.52;nan;100639.28;5027385;28;20044;-65
2022/07/07 07:47:41;;;;;;;7.95;2.83;;;;;;;23.57;nan;100614.94;5024821;28;20033;-65
2022/07/07 07:50:12;;;;;;;5.32;2.92;;;;;;;23.59;nan;100651.50;5022835;28;20042;-64
2022/07/07 07:52:41;;;;;;;5.30;2.55;;;;;;;23.66;nan;100660.72;5022105;28;20040;-66
2022/07/07 07:55:09;;;;;;;6.95;2.60;;;;;;;23.69;nan;100629.72;5020815;28;20029;-65
2022/07/07 07:57:35;;;;;;;5.80;2.30;;;;;;;23.74;nan;100624.25;5026873;28;20029;-64
2022/07/07 08:00:01;;;;;;;4.07;2.22;;;;;;;23.87;nan;100593.00;5023412;28;20026;-65
2022/07/07 08:02:26;;;;;;;8.38;2.60;;;;;;;23.91;nan;100632.41;5028351;28;20056;-66
2022/07/07 08:04:52;;;;;;;4.20;2.40;;;;;;;24.04;nan;100687.25;5019393;28;20120;-64
2022/07/07 08:07:17;;;;;;;10.40;2.80;;;;;;;24.13;nan;100622.69;5024714;28;20030;-67
2022/07/07 08:09:44;;;;;;;4.75;2.65;;;;;;;24.14;nan;100629.69;5023516;28;20096;-64
2022/07/07 08:12:10;;;;;;;6.30;2.80;;;;;;;24.20;nan;100612.28;5019468;28;20045;-64
2022/07/07 08:14:35;;;;;;;3.47;2.22;;;;;;;24.33;nan;100626.75;5020349;28;20414;-64
2022/07/07 08:17:01;;;;;;;3.83;2.78;;;;;;;24.42;nan;100649.88;5021222;28;20036;-66
2022/07/07 08:19:27;;;;;;;2.88;2.22;;;;;;;24.43;nan;100637.22;5025516;28;20450;-66
2022/07/07 08:21:52;;;;;;;5.38;2.22;;;;;;;24.54;nan;100619.69;5023333;28;20060;-65
2022/07/07 08:24:18;;;;;;;2.80;1.95;;;;;;;24.61;nan;100586.91;5028573;28;20037;-74
2022/07/07 08:26:44;;;;;;;7.15;2.35;;;;;;;24.62;nan;100623.53;5025925;28;20076;-65
2022/07/07 08:29:09;;;;;;;3.60;2.10;;;;;;;24.65;nan;100622.88;5022126;28;20038;-64
2022/07/07 08:31:35;;;;;;;3.95;2.20;;;;;;;24.70;nan;100627.31;5026376;28;20037;-64
2022/07/07 08:34:00;;;;;;;7.93;2.40;;;;;;;24.71;nan;100613.56;5021114;28;20080;-66
2022/07/07 08:36:26;;;;;;;3.05;1.95;;;;;;;24.80;nan;100632.41;5019621;28;20112;-66
2022/07/07 08:38:51;;;;;;;6.53;2.20;;;;;;;;;;5020969;28;20061;-65
2022/07/07 08:41:17;;;;;;;4.13;1.98;;;;;;;24.93;nan;100641.47;5020114;28;20034;-64
2022/07/07 08:43:42;;;;;;;4.78;2.30;;;;;;;25.07;nan;100609.78;5024377;28;20460;-65
2022/07/07 08:46:09;;;;;;;3.75;2.10;;;;;;;25.23;nan;100610.09;5024482;28;20376;-65
2022/07/07 08:48:35;;;;;;;4.85;2.20;;;;;;;25.22;nan;100587.75;5025952;28;20061;-64
2022/07/07 08:51:04;;;;;;;6.03;2.03;;;;;;;25.15;nan;100622.44;5025563;28;20041;-64
2022/07/07 08:53:35;;;;;;;6.97;2.28;;;;;;;25.12;nan;100625.78;5019550;28;20037;-65
2022/07/07 08:56:05;;;;;;;9.30;2.50;;;;;;;;;;5024880;28;20033;-66
2022/07/07 08:58:31;;;;;;;7.20;2.20;;;;;;;25.11;nan;100629.56;5020778;28;20395;-66
2022/07/07 09:00:57;;;;;;;3.88;2.33;;;;;;;25.17;nan;100612.19;5022463;28;20030;-66
2022/07/07 09:03:23;;;;;;;6.00;2.22;;;;;;;25.20;nan;100616.91;5021042;28;20099;-65
2022/07/07 09:05:49;;;;;;;6.47;2.42;;;;;;;25.20;nan;100619.63;5019563;28;20472;-66
2022/07/07 09:08:18;;;;;;;4.78;2.30;;;;;;;25.22;nan;100630.88;5013197;28;20034;-64
2022/07/07 09:10:46;;;;;;;5.50;2.28;;;;;;;25.33;nan;100620.56;5028286;28;20037;-66
2022/07/07 09:13:28;;;;;;;5.27;1.97;;;;;;;25.46;nan;100618.81;5017201;28;20049;-65
2022/07/07 09:16:12;;;;;;;6.70;2.33;;;;;;;25.54;nan;100553.28;5019713;28;20117;-66
2022/07/07 09:18:40;;;;;;;3.60;1.80;;;;;;;25.74;nan;100613.00;5022496;28;20076;-65
2022/07/07 09:21:25;;;;;;;5.28;2.00;;;;;;;25.95;nan;100602.34;5025135;28;20399;-66
2022/07/07 09:23:53;;;;;;;4.57;2.20;;;;;;;25.99;nan;100604.09;5036196;28;20040;-66
2022/07/07 09:26:40;;;;;;;4.32;2.00;;;;;;;26.05;nan;100610.91;5023311;28;20053;-66
2022/07/07 09:29:07;;;;;;;2.78;1.98;;;;;;;26.05;nan;100616.28;5023675;28;20030;-66
2022/07/07 09:31:51;;;;;;;3.13;1.90;;;;;;;26.12;nan;100618.47;5020197;28;20037;-66
2022/07/07 09:34:17;;;;;;;3.95;2.00;;;;;;;26.23;nan;100617.00;5026790;28;20037;-65
2022/07/07 09:39:55;;;;;;;2.30;1.73;;;;;;;26.24;nan;100607.78;5024501;28;20029;-64
2022/07/07 09:42:26;;;;;;;2.80;2.05;;;;;;;26.28;nan;100606.00;5027566;28;20484;-65
2022/07/07 09:45:10;;;;;;;4.85;2.13;;;;;;;26.35;nan;100600.09;5023400;28;20041;-65
2022/07/07 09:47:35;;;;;;;2.58;1.95;;;;;;;26.40;nan;100651.22;5026052;28;20088;-65
2022/07/07 09:50:04;;;;;;;4.68;2.00;;;;;;;26.61;nan;100591.09;5023344;28;20037;-65
2022/07/07 09:52:31;;;;;;;4.85;1.90;;;;;;;26.83;nan;100609.66;5025984;28;20083;-65
2022/07/07 09:54:58;;;;;;;5.82;2.10;;;;;;;26.82;nan;100591.09;5023755;28;20040;-65
2022/07/07 09:57:24;;;;;;;5.03;2.10;;;;;;;26.87;nan;100580.88;5027137;28;20095;-65
2022/07/07 09:59:49;;;;;;;4.47;2.00;;;;;;;26.79;nan;100554.69;5024227;28;20132;-65
2022/07/07 10:02:21;;;;;;;5.10;1.73;;;;;;;26.68;nan;100581.31;5024406;28;20121;-64
2022/07/07 10:04:49;;;;;;;3.47;1.80;;;;;;;26.75;nan;100588.91;5020231;28;20040;-65
2022/07/07 10:07:17;;;;;;;7.97;2.00;;;;;;;26.76;nan;100593.19;5029679;28;20507;-65
2022/07/07 10:09:44;;;;;;;5.28;2.15;;;;;;;26.84;nan;100584.25;5025738;28;20037;-65
2022/07/07 10:12:11;;;;;;;3.90;2.42;;;;;;;27.00;nan;100634.97;5031537;28;20041;-67
2022/07/07 10:14:41;;;;;;;2.72;2.00;;;;;;;26.94;nan;100583.03;5018480;28;20045;-65
2022/07/07 10:17:08;;;;;;;4.82;1.90;;;;;;;26.97;nan;100557.28;5025915;28;20483;-65
2022/07/07 10:19:33;;;;;;;3.17;2.08;;;;;;;27.14;nan;100584.13;5026563;28;20056;-65
2022/07/07 10:21:59;;;;;;;4.72;2.10;;;;;;;27.16;nan;100584.59;5024581;28;20026;-65
2022/07/07 10:24:28;;;;;;;2.30;2.10;;;;;;;27.23;nan;100557.06;5021880;28;20037;-64
2022/07/07 10:26:58;;;;;;;5.33;2.10;;;;;;;27.34;nan;100588.75;5020203;28;20041;-65
2022/07/07 10:29:42;;;;;;;4.55;2.10;;;;;;;27.43;nan;100569.72;5022021;28;20282;-65
2022/07/07 10:32:09;;;;;;;3.22;1.98;;;;;;;27.36;nan;100581.06;5023135;28;20124;-65
2022/07/07 10:34:54;;;;;;;1.90;1.77;;;;;;;27.38;nan;100571.84;5043355;28;20041;-66
2022/07/07 10:37:21;;;;;;;2.53;2.10;;;;;;;27.43;nan;100612.97;5019080;28;20030;-65
2022/07/07 10:39:48;;;;;;;4.40;1.83;;;;;;;27.29;nan;100564.59;5018887;28;20085;-65
2022/07/07 10:42:17;;;;;;;5.30;1.90;;;;;;;27.19;nan;100586.66;5030982;28;20033;-66
2022/07/07 10:44:45;;;;;;;4.03;2.30;;;;;;;27.10;nan;100572.41;5036418;28;20387;-65
2022/07/07 10:47:11;;;;;;;6.45;2.55;;;;;;;27.02;nan;100582.16;5025693;28;20029;-65
2022/07/07 10:49:41;;;;;;;4.10;2.37;;;;;;;26.92;nan;100553.63;5025611;28;20373;-65
2022/07/07 10:52:15;;;;;;;4.60;2.30;;;;;;;27.06;nan;100566.09;5026171;28;20272;-65
2022/07/07 10:54:43;;;;;;;2.15;1.88;;;;;;;27.05;nan;100567.19;5024278;28;20033;-66
2022/07/07 10:57:09;;;;;;;4.50;2.20;;;;;;;26.97;nan;100578.88;5028542;28;20041;-66
2022/07/07 11:00:09;;;;;;;5.47;2.53;;;;;;;27.09;nan;100577.00;5022217;28;20096;-65
2022/07/07 11:02:47;;;;;;;4.88;2.20;;;;;;;27.23;nan;100570.56;5022358;28;20040;-65
2022/07/07 11:05:12;;;;;;;9.52;4.85;;;;;;;27.27;nan;100572.28;5021438;28;20034;-65
2022/07/07 11:07:39;;;;;;;6.73;3.97;;;;;;;27.28;nan;100563.03;5021947;28;20061;-65
2022/07/07 11:10:11;;;;;;;5.13;3.60;;;;;;;27.39;nan;100554.47;5022982;28;20308;-65
2022/07/07 11:12:38;;;;;;;6.50;2.47;;;;;;;27.24;nan;100559.41;5025520;28;20041;-64
2022/07/07 11:15:20;;;;;;;6.25;2.60;;;;;;;27.19;nan;100567.72;5029934;28;20021;-65
2022/07/07 11:17:53;;;;;;;5.93;2.30;;;;;;;27.11;nan;100557.78;5024950;28;20045;-65
2022/07/07 11:20:21;;;;;;;8.55;2.28;;;;;;;27.09;nan;100560.78;5027587;28;20033;-65
2022/07/07 11:22:49;;;;;;;4.45;2.72;;;;;;;26.94;nan;100537.09;5020542;28;20033;-64
2022/07/07 11:25:17;;;;;;;4.60;2.10;;;;;;;26.94;nan;100593.84;5023185;28;20184;-65
2022/07/07 11:27:43;;;;;;;3.63;2.08;;;;;;;26.91;nan;100546.66;5021564;28;20094;-63
2022/07/07 11:30:09;;;;;;;2.88;2.22;;;;;;;26.84;nan;100543.72;5024615;28;20041;-66
2022/07/07 11:32:36;;;;;;;2.85;2.40;;;;;;;26.96;nan;100542.97;5022435;28;20060;-64
2022/07/07 11:35:05;;;;;;;2.60;2.00;;;;;;;27.06;nan;100512.03;5020436;28;20110;-65
2022/07/07 11:37:31;;;;;;;2.95;1.98;;;;;;;27.11;nan;100528.03;5022299;28;20025;-66
2022/07/07 11:39:57;;;;;;;2.28;1.92;;;;;;;27.18;nan;100539.09;5024846;28;20034;-65
2022/07/07 11:42:23;;;;;;;3.00;2.13;;;;;;;27.26;nan;100530.13;5026531;28;20036;-65
2022/07/07 11:44:49;;;;;;;2.33;1.88;;;;;;;27.36;nan;100540.50;5026781;28;20038;-66
2022/07/07 11:47:15;;;;;;;2.40;2.05;;;;;;;27.47;nan;100529.28;5024623;28;20026;-66
2022/07/07 11:49:41;;;;;;;5.90;1.95;;;;;;;27.52;nan;100539.88;5019464;28;20365;-66
2022/07/07 11:52:12;;;;;;;3.55;2.35;;;;;;;27.61;nan;100501.88;5025579;28;20033;-66
2022/07/07 11:54:47;;;;;;;7.00;2.30;;;;;;;27.73;nan;100497.28;5020909;28;20026;-65
2022/07/07 11:57:28;;;;;;;6.07;1.80;;;;;;;27.65;nan;100502.78;5022637;28;20049;-65
2022/07/07 11:59:53;;;;;;;2.92;1.83;;;;;;;27.57;nan;100513.38;5020209;28;20467;-66
2022/07/07 12:02:19;;;;;;;7.22;2.08;;;;;;;27.55;nan;100509.44;5018040;28;20123;-66
2022/07/07 12:04:45;;;;;;;5.13;2.20;;;;;;;27.63;nan;100483.41;5019820;28;20026;-66
2022/07/07 12:07:10;;;;;;;6.47;2.13;;;;;;;27.66;nan;100574.72;5025087;28;20037;-66